Mount Hermon, Louisiana
Current Conditions -  °F | °C
As of 11:53 PM on Monday 26 Jan 2015 (Local Time) from KMCB Reporting Station
Clear Clear  
Wind Chill: 42°   Ceiling: Unl
Heat Index: 45°   Visibility: 10mi
Dew Point: 35°   Wind: 6mph
Humidity: 68%   Direction: 270°W
Pressure: 30.08"   Gusts: NA
Location:  30.96°N, 90.3°W
Report Text: KMCB 270553Z AUTO 27005KT 10SM CLR 07/02 A3008 RMK AO2 SLP184 T00720017 10106 20061 401560050 53005
Loading
Personal Weather Stations






























Interactive Weather Map New forecast layout! Learn more

10-Day Weather Forecast

Advertisements
Track Severe Weather on mobile